sensor_id;sensor_type;location;lat;lon;timestamp;P1;durP1;ratioP1;P2;durP2;ratioP2
76204;SDS011;64986;55.672;37.628;2023-04-01T00:01:54;9.77;;;6.90;;
76204;SDS011;64986;55.672;37.628;2023-04-01T00:04:20;10.13;;;6.15;;
76204;SDS011;64986;55.672;37.628;2023-04-01T00:06:46;6.18;;;4.07;;
76204;SDS011;64986;55.672;37.628;2023-04-01T00:09:12;6.32;;;4.63;;
76204;SDS011;64986;55.672;37.628;2023-04-01T00:11:38;6.95;;;4.75;;
76204;SDS011;64986;55.672;37.628;2023-04-01T00:14:06;6.20;;;4.35;;
76204;SDS011;64986;55.672;37.628;2023-04-01T00:16:32;6.88;;;4.05;;
76204;SDS011;64986;55.672;37.628;2023-04-01T00:18:58;6.70;;;4.20;;
76204;SDS011;64986;55.672;37.628;2023-04-01T00:21:24;6.13;;;4.13;;
76204;SDS011;64986;55.672;37.628;2023-04-01T00:23:50;6.57;;;3.67;;
76204;SDS011;64986;55.672;37.628;2023-04-01T00:26:16;6.15;;;4.47;;
76204;SDS011;64986;55.672;37.628;2023-04-01T00:28:44;10.32;;;5.53;;
76204;SDS011;64986;55.672;37.628;2023-04-01T00:31:13;5.68;;;4.35;;
76204;SDS011;64986;55.672;37.628;2023-04-01T00:33:40;5.15;;;3.63;;
76204;SDS011;64986;55.672;37.628;2023-04-01T00:36:12;8.77;;;5.82;;
76204;SDS011;64986;55.672;37.628;2023-04-01T00:38:40;4.55;;;3.47;;
76204;SDS011;64986;55.672;37.628;2023-04-01T00:41:08;8.07;;;5.55;;
76204;SDS011;64986;55.672;37.628;2023-04-01T00:43:35;5.53;;;3.72;;
76204;SDS011;64986;55.672;37.628;2023-04-01T00:46:01;5.80;;;3.90;;
76204;SDS011;64986;55.672;37.628;2023-04-01T00:48:31;6.20;;;4.35;;
76204;SDS011;64986;55.672;37.628;2023-04-01T00:51:02;8.25;;;4.93;;
76204;SDS011;64986;55.672;37.628;2023-04-01T00:53:32;5.63;;;3.50;;
76204;SDS011;64986;55.672;37.628;2023-04-01T00:56:04;6.22;;;4.70;;
76204;SDS011;64986;55.672;37.628;2023-04-01T00:58:38;7.07;;;4.68;;
76204;SDS011;64986;55.672;37.628;2023-04-01T01:01:08;5.88;;;3.90;;
76204;SDS011;64986;55.672;37.628;2023-04-01T01:03:35;8.77;;;5.28;;
76204;SDS011;64986;55.672;37.628;2023-04-01T01:11:17;6.13;;;4.38;;
76204;SDS011;64986;55.672;37.628;2023-04-01T01:13:54;6.78;;;4.75;;
76204;SDS011;64986;55.672;37.628;2023-04-01T01:16:30;6.18;;;4.40;;
76204;SDS011;64986;55.672;37.628;2023-04-01T01:27:28;7.97;;;5.00;;
76204;SDS011;64986;55.672;37.628;2023-04-01T01:33:13;6.22;;;4.18;;
76204;SDS011;64986;55.672;37.628;2023-04-01T01:36:01;5.47;;;3.97;;
76204;SDS011;64986;55.672;37.628;2023-04-01T01:38:31;5.80;;;4.00;;
76204;SDS011;64986;55.672;37.628;2023-04-01T01:40:59;7.70;;;4.53;;
76204;SDS011;64986;55.672;37.628;2023-04-01T01:43:29;5.40;;;4.20;;
76204;SDS011;64986;55.672;37.628;2023-04-01T01:45:58;6.45;;;5.15;;
76204;SDS011;64986;55.672;37.628;2023-04-01T01:48:26;8.90;;;5.43;;
76204;SDS011;64986;55.672;37.628;2023-04-01T01:50:54;9.50;;;6.32;;
76204;SDS011;64986;55.672;37.628;2023-04-01T01:53:20;7.00;;;5.00;;
76204;SDS011;64986;55.672;37.628;2023-04-01T01:55:46;8.73;;;4.78;;
76204;SDS011;64986;55.672;37.628;2023-04-01T02:00:50;8.85;;;5.07;;
76204;SDS011;64986;55.672;37.628;2023-04-01T02:03:21;7.93;;;5.40;;
76204;SDS011;64986;55.672;37.628;2023-04-01T02:05:49;10.13;;;5.80;;
76204;SDS011;64986;55.672;37.628;2023-04-01T02:08:49;9.85;;;6.32;;
76204;SDS011;64986;55.672;37.628;2023-04-01T02:11:11;12.65;;;5.95;;
76204;SDS011;64986;55.672;37.628;2023-04-01T02:16:17;12.32;;;5.82;;
76204;SDS011;64986;55.672;37.628;2023-04-01T02:18:48;9.30;;;6.20;;
76204;SDS011;64986;55.672;37.628;2023-04-01T02:21:18;9.40;;;5.20;;
76204;SDS011;64986;55.672;37.628;2023-04-01T02:23:46;10.73;;;6.35;;
76204;SDS011;64986;55.672;37.628;2023-04-01T02:26:13;7.00;;;5.38;;
76204;SDS011;64986;55.672;37.628;2023-04-01T02:28:39;7.72;;;5.53;;
76204;SDS011;64986;55.672;37.628;2023-04-01T02:31:07;7.40;;;5.20;;
76204;SDS011;64986;55.672;37.628;2023-04-01T02:33:35;8.98;;;6.22;;
76204;SDS011;64986;55.672;37.628;2023-04-01T02:36:02;8.57;;;6.15;;
76204;SDS011;64986;55.672;37.628;2023-04-01T02:38:29;9.55;;;6.30;;
76204;SDS011;64986;55.672;37.628;2023-04-01T02:40:59;12.07;;;7.68;;
76204;SDS011;64986;55.672;37.628;2023-04-01T02:43:26;11.27;;;6.63;;
76204;SDS011;64986;55.672;37.628;2023-04-01T02:45:52;10.02;;;6.90;;
76204;SDS011;64986;55.672;37.628;2023-04-01T02:48:18;8.90;;;5.72;;
76204;SDS011;64986;55.672;37.628;2023-04-01T02:50:43;10.73;;;6.65;;
76204;SDS011;64986;55.672;37.628;2023-04-01T02:53:09;14.40;;;8.40;;
76204;SDS011;64986;55.672;37.628;2023-04-01T02:55:35;14.43;;;9.00;;
76204;SDS011;64986;55.672;37.628;2023-04-01T02:58:01;10.30;;;7.30;;
76204;SDS011;64986;55.672;37.628;2023-04-01T03:00:27;10.30;;;7.30;;
76204;SDS011;64986;55.672;37.628;2023-04-01T03:02:53;16.23;;;8.60;;
76204;SDS011;64986;55.672;37.628;2023-04-01T03:05:19;15.93;;;8.98;;
76204;SDS011;64986;55.672;37.628;2023-04-01T03:07:45;11.90;;;7.80;;
76204;SDS011;64986;55.672;37.628;2023-04-01T03:10:11;10.00;;;7.20;;
76204;SDS011;64986;55.672;37.628;2023-04-01T03:12:36;9.75;;;6.55;;
76204;SDS011;64986;55.672;37.628;2023-04-01T03:15:02;11.98;;;7.22;;
76204;SDS011;64986;55.672;37.628;2023-04-01T03:17:28;9.65;;;6.32;;
76204;SDS011;64986;55.672;37.628;2023-04-01T03:19:53;10.30;;;5.93;;
76204;SDS011;64986;55.672;37.628;2023-04-01T03:22:19;9.32;;;6.80;;
76204;SDS011;64986;55.672;37.628;2023-04-01T03:24:46;10.25;;;6.65;;
76204;SDS011;64986;55.672;37.628;2023-04-01T03:27:13;9.70;;;6.32;;
76204;SDS011;64986;55.672;37.628;2023-04-01T03:29:38;8.73;;;6.18;;
76204;SDS011;64986;55.672;37.628;2023-04-01T03:32:04;14.70;;;7.53;;
76204;SDS011;64986;55.672;37.628;2023-04-01T03:34:30;8.35;;;5.85;;
76204;SDS011;64986;55.672;37.628;2023-04-01T03:36:56;6.90;;;4.55;;
76204;SDS011;64986;55.672;37.628;2023-04-01T03:39:21;7.25;;;4.72;;
76204;SDS011;64986;55.672;37.628;2023-04-01T03:41:47;6.72;;;5.07;;
76204;SDS011;64986;55.672;37.628;2023-04-01T03:44:12;9.35;;;6.82;;
76204;SDS011;64986;55.672;37.628;2023-04-01T03:46:38;10.20;;;6.00;;
76204;SDS011;64986;55.672;37.628;2023-04-01T03:49:08;9.27;;;6.50;;
76204;SDS011;64986;55.672;37.628;2023-04-01T03:51:39;11.57;;;6.60;;
76204;SDS011;64986;55.672;37.628;2023-04-01T03:54:09;7.38;;;5.20;;
76204;SDS011;64986;55.672;37.628;2023-04-01T03:56:35;9.30;;;5.32;;
76204;SDS011;64986;55.672;37.628;2023-04-01T03:59:02;7.32;;;5.25;;
76204;SDS011;64986;55.672;37.628;2023-04-01T04:01:29;9.63;;;5.35;;
76204;SDS011;64986;55.672;37.628;2023-04-01T04:03:55;8.63;;;6.43;;
76204;SDS011;64986;55.672;37.628;2023-04-01T04:06:21;7.95;;;5.30;;
76204;SDS011;64986;55.672;37.628;2023-04-01T04:08:48;8.82;;;5.22;;
76204;SDS011;64986;55.672;37.628;2023-04-01T04:11:14;7.57;;;4.97;;
76204;SDS011;64986;55.672;37.628;2023-04-01T04:13:39;7.20;;;4.35;;
76204;SDS011;64986;55.672;37.628;2023-04-01T04:16:06;11.88;;;6.22;;
76204;SDS011;64986;55.672;37.628;2023-04-01T04:18:33;9.05;;;6.20;;
76204;SDS011;64986;55.672;37.628;2023-04-01T04:20:59;9.60;;;6.25;;
76204;SDS011;64986;55.672;37.628;2023-04-01T04:23:24;9.13;;;6.28;;
76204;SDS011;64986;55.672;37.628;2023-04-01T04:25:53;5.63;;;3.78;;
76204;SDS011;64986;55.672;37.628;2023-04-01T04:28:24;5.78;;;4.18;;
76204;SDS011;64986;55.672;37.628;2023-04-01T04:30:51;8.82;;;5.40;;
76204;SDS011;64986;55.672;37.628;2023-04-01T04:33:16;5.70;;;3.92;;
76204;SDS011;64986;55.672;37.628;2023-04-01T04:35:42;7.63;;;4.88;;
76204;SDS011;64986;55.672;37.628;2023-04-01T04:38:08;9.15;;;6.03;;
76204;SDS011;64986;55.672;37.628;2023-04-01T04:40:35;6.00;;;4.53;;
76204;SDS011;64986;55.672;37.628;2023-04-01T04:43:02;6.95;;;4.75;;
76204;SDS011;64986;55.672;37.628;2023-04-01T04:45:28;7.88;;;4.80;;
76204;SDS011;64986;55.672;37.628;2023-04-01T04:47:54;6.60;;;4.18;;
76204;SDS011;64986;55.672;37.628;2023-04-01T04:50:20;9.35;;;4.55;;
76204;SDS011;64986;55.672;37.628;2023-04-01T04:52:45;7.07;;;4.30;;
76204;SDS011;64986;55.672;37.628;2023-04-01T04:55:11;5.90;;;4.25;;
76204;SDS011;64986;55.672;37.628;2023-04-01T04:57:36;6.53;;;3.97;;
76204;SDS011;64986;55.672;37.628;2023-04-01T05:00:02;5.43;;;3.70;;
76204;SDS011;64986;55.672;37.628;2023-04-01T05:02:28;8.52;;;4.75;;
76204;SDS011;64986;55.672;37.628;2023-04-01T05:04:54;6.43;;;4.07;;
76204;SDS011;64986;55.672;37.628;2023-04-01T05:07:20;6.15;;;4.18;;
76204;SDS011;64986;55.672;37.628;2023-04-01T05:09:45;7.03;;;4.70;;
76204;SDS011;64986;55.672;37.628;2023-04-01T05:12:12;5.80;;;3.38;;
76204;SDS011;64986;55.672;37.628;2023-04-01T05:14:38;7.75;;;4.57;;
76204;SDS011;64986;55.672;37.628;2023-04-01T05:17:04;6.00;;;4.45;;
76204;SDS011;64986;55.672;37.628;2023-04-01T05:19:34;8.70;;;4.30;;
76204;SDS011;64986;55.672;37.628;2023-04-01T05:22:00;9.52;;;4.88;;
76204;SDS011;64986;55.672;37.628;2023-04-01T05:24:25;7.85;;;4.97;;
76204;SDS011;64986;55.672;37.628;2023-04-01T05:26:51;8.77;;;4.93;;
76204;SDS011;64986;55.672;37.628;2023-04-01T05:29:16;10.45;;;6.47;;
76204;SDS011;64986;55.672;37.628;2023-04-01T05:31:42;10.23;;;5.93;;
76204;SDS011;64986;55.672;37.628;2023-04-01T05:34:07;8.63;;;5.30;;
76204;SDS011;64986;55.672;37.628;2023-04-01T05:36:33;4.90;;;3.80;;
76204;SDS011;64986;55.672;37.628;2023-04-01T05:38:59;5.65;;;4.30;;
76204;SDS011;64986;55.672;37.628;2023-04-01T05:41:25;5.70;;;4.32;;
76204;SDS011;64986;55.672;37.628;2023-04-01T05:43:50;10.07;;;4.93;;
76204;SDS011;64986;55.672;37.628;2023-04-01T05:46:16;8.25;;;5.22;;
76204;SDS011;64986;55.672;37.628;2023-04-01T05:48:41;5.90;;;4.20;;
76204;SDS011;64986;55.672;37.628;2023-04-01T05:51:12;6.95;;;4.90;;
76204;SDS011;64986;55.672;37.628;2023-04-01T05:53:38;7.22;;;4.97;;
76204;SDS011;64986;55.672;37.628;2023-04-01T05:56:04;8.75;;;5.38;;
76204;SDS011;64986;55.672;37.628;2023-04-01T05:58:30;9.13;;;4.85;;
76204;SDS011;64986;55.672;37.628;2023-04-01T06:01:03;11.20;;;5.68;;
76204;SDS011;64986;55.672;37.628;2023-04-01T06:03:36;7.50;;;4.82;;
76204;SDS011;64986;55.672;37.628;2023-04-01T06:06:02;7.60;;;4.63;;
76204;SDS011;64986;55.672;37.628;2023-04-01T06:08:29;7.30;;;5.18;;
76204;SDS011;64986;55.672;37.628;2023-04-01T06:11:04;10.38;;;5.47;;
76204;SDS011;64986;55.672;37.628;2023-04-01T06:16:30;8.88;;;5.90;;
76204;SDS011;64986;55.672;37.628;2023-04-01T06:19:25;7.43;;;4.70;;
76204;SDS011;64986;55.672;37.628;2023-04-01T06:22:17;8.85;;;5.57;;
76204;SDS011;64986;55.672;37.628;2023-04-01T06:27:47;9.95;;;5.38;;
76204;SDS011;64986;55.672;37.628;2023-04-01T06:41:33;14.60;;;6.25;;
76204;SDS011;64986;55.672;37.628;2023-04-01T06:46:50;11.07;;;5.93;;
76204;SDS011;64986;55.672;37.628;2023-04-01T06:54:32;11.70;;;7.32;;
76204;SDS011;64986;55.672;37.628;2023-04-01T06:59:51;11.68;;;6.13;;
76204;SDS011;64986;55.672;37.628;2023-04-01T07:02:24;9.90;;;6.45;;
76204;SDS011;64986;55.672;37.628;2023-04-01T07:04:59;11.10;;;6.35;;
76204;SDS011;64986;55.672;37.628;2023-04-01T07:07:31;11.77;;;8.00;;
76204;SDS011;64986;55.672;37.628;2023-04-01T07:10:04;10.77;;;7.05;;
76204;SDS011;64986;55.672;37.628;2023-04-01T07:12:41;11.73;;;8.57;;
76204;SDS011;64986;55.672;37.628;2023-04-01T07:15:19;11.48;;;7.18;;
76204;SDS011;64986;55.672;37.628;2023-04-01T07:17:52;13.73;;;7.40;;
76204;SDS011;64986;55.672;37.628;2023-04-01T07:20:22;14.60;;;8.82;;
76204;SDS011;64986;55.672;37.628;2023-04-01T07:22:54;12.77;;;7.38;;
76204;SDS011;64986;55.672;37.628;2023-04-01T07:25:44;12.38;;;7.43;;
76204;SDS011;64986;55.672;37.628;2023-04-01T07:28:12;14.48;;;8.68;;
76204;SDS011;64986;55.672;37.628;2023-04-01T07:30:43;10.93;;;6.88;;
76204;SDS011;64986;55.672;37.628;2023-04-01T07:35:58;16.45;;;9.15;;
76204;SDS011;64986;55.672;37.628;2023-04-01T07:47:25;11.77;;;7.25;;
76204;SDS011;64986;55.672;37.628;2023-04-01T07:55:40;13.75;;;8.95;;
76204;SDS011;64986;55.672;37.628;2023-04-01T08:01:11;12.15;;;7.40;;
76204;SDS011;64986;55.672;37.628;2023-04-01T08:06:33;11.20;;;6.45;;
76204;SDS011;64986;55.672;37.628;2023-04-01T08:09:23;10.85;;;7.35;;
76204;SDS011;64986;55.672;37.628;2023-04-01T08:15:21;12.68;;;7.35;;
76204;SDS011;64986;55.672;37.628;2023-04-01T08:18:02;12.02;;;8.02;;
76204;SDS011;64986;55.672;37.628;2023-04-01T08:20:34;13.65;;;8.27;;
76204;SDS011;64986;55.672;37.628;2023-04-01T08:25:44;9.32;;;6.85;;
76204;SDS011;64986;55.672;37.628;2023-04-01T08:28:29;10.52;;;6.45;;
76204;SDS011;64986;55.672;37.628;2023-04-01T08:33:52;11.82;;;8.07;;
76204;SDS011;64986;55.672;37.628;2023-04-01T08:36:33;15.88;;;8.98;;
76204;SDS011;64986;55.672;37.628;2023-04-01T08:39:12;12.52;;;8.15;;
76204;SDS011;64986;55.672;37.628;2023-04-01T08:41:53;13.30;;;8.13;;
76204;SDS011;64986;55.672;37.628;2023-04-01T08:47:20;13.25;;;8.05;;
76204;SDS011;64986;55.672;37.628;2023-04-01T09:17:42;11.88;;;6.22;;
76204;SDS011;64986;55.672;37.628;2023-04-01T09:23:41;11.15;;;6.03;;
76204;SDS011;64986;55.672;37.628;2023-04-01T09:45:00;15.43;;;7.28;;
76204;SDS011;64986;55.672;37.628;2023-04-01T10:16:09;11.57;;;5.13;;
76204;SDS011;64986;55.672;37.628;2023-04-01T10:30:05;9.23;;;4.40;;
76204;SDS011;64986;55.672;37.628;2023-04-01T10:50:28;8.80;;;4.20;;
76204;SDS011;64986;55.672;37.628;2023-04-01T10:55:59;8.55;;;4.28;;
76204;SDS011;64986;55.672;37.628;2023-04-01T10:58:47;8.50;;;4.22;;
76204;SDS011;64986;55.672;37.628;2023-04-01T11:01:59;9.13;;;4.45;;
76204;SDS011;64986;55.672;37.628;2023-04-01T11:07:49;12.02;;;4.65;;
76204;SDS011;64986;55.672;37.628;2023-04-01T11:35:09;8.77;;;4.10;;
76204;SDS011;64986;55.672;37.628;2023-04-01T11:40:31;9.35;;;3.65;;
76204;SDS011;64986;55.672;37.628;2023-04-01T11:46:29;10.02;;;3.80;;
76204;SDS011;64986;55.672;37.628;2023-04-01T12:03:21;11.20;;;4.53;;
76204;SDS011;64986;55.672;37.628;2023-04-01T12:22:43;7.80;;;4.15;;
76204;SDS011;64986;55.672;37.628;2023-04-01T12:39:17;12.75;;;5.25;;
76204;SDS011;64986;55.672;37.628;2023-04-01T12:44:52;10.90;;;5.40;;
76204;SDS011;64986;55.672;37.628;2023-04-01T12:47:42;12.48;;;5.80;;
76204;SDS011;64986;55.672;37.628;2023-04-01T12:50:39;10.40;;;5.45;;
76204;SDS011;64986;55.672;37.628;2023-04-01T12:53:32;9.38;;;6.75;;
76204;SDS011;64986;55.672;37.628;2023-04-01T12:56:24;12.95;;;6.40;;
76204;SDS011;64986;55.672;37.628;2023-04-01T13:02:27;16.80;;;5.53;;
76204;SDS011;64986;55.672;37.628;2023-04-01T13:05:01;12.60;;;5.55;;
76204;SDS011;64986;55.672;37.628;2023-04-01T13:19:04;11.38;;;6.55;;
76204;SDS011;64986;55.672;37.628;2023-04-01T13:35:16;12.07;;;5.68;;
76204;SDS011;64986;55.672;37.628;2023-04-01T13:42:57;15.00;;;4.97;;
76204;SDS011;64986;55.672;37.628;2023-04-01T13:59:02;10.25;;;5.05;;
76204;SDS011;64986;55.672;37.628;2023-04-01T14:36:42;12.48;;;7.47;;
76204;SDS011;64986;55.672;37.628;2023-04-01T14:50:46;14.82;;;6.30;;
76204;SDS011;64986;55.672;37.628;2023-04-01T14:58:14;12.82;;;6.00;;
76204;SDS011;64986;55.672;37.628;2023-04-01T15:06:24;10.40;;;7.07;;
76204;SDS011;64986;55.672;37.628;2023-04-01T15:27:51;10.07;;;6.63;;
76204;SDS011;64986;55.672;37.628;2023-04-01T15:30:23;14.70;;;7.28;;
76204;SDS011;64986;55.672;37.628;2023-04-01T15:44:50;11.30;;;6.82;;
76204;SDS011;64986;55.672;37.628;2023-04-01T15:55:25;12.05;;;8.63;;
76204;SDS011;64986;55.672;37.628;2023-04-01T15:58:14;17.35;;;8.38;;
76204;SDS011;64986;55.672;37.628;2023-04-01T16:06:23;12.30;;;8.23;;
76204;SDS011;64986;55.672;37.628;2023-04-01T16:11:48;13.00;;;8.18;;
76204;SDS011;64986;55.672;37.628;2023-04-01T16:22:54;14.63;;;8.57;;
76204;SDS011;64986;55.672;37.628;2023-04-01T16:25:36;15.98;;;9.75;;
76204;SDS011;64986;55.672;37.628;2023-04-01T16:31:00;13.85;;;8.70;;
76204;SDS011;64986;55.672;37.628;2023-04-01T16:33:48;15.65;;;9.10;;
76204;SDS011;64986;55.672;37.628;2023-04-01T16:36:37;17.52;;;8.30;;
76204;SDS011;64986;55.672;37.628;2023-04-01T16:44:18;12.55;;;8.73;;
76204;SDS011;64986;55.672;37.628;2023-04-01T16:46:59;10.50;;;8.02;;
76204;SDS011;64986;55.672;37.628;2023-04-01T16:49:37;12.65;;;9.10;;
76204;SDS011;64986;55.672;37.628;2023-04-01T17:02:31;12.50;;;8.30;;
76204;SDS011;64986;55.672;37.628;2023-04-01T17:05:04;9.90;;;7.03;;
76204;SDS011;64986;55.672;37.628;2023-04-01T17:12:44;12.48;;;8.23;;
76204;SDS011;64986;55.672;37.628;2023-04-01T17:15:26;12.90;;;8.70;;
76204;SDS011;64986;55.672;37.628;2023-04-01T17:18:11;10.98;;;7.57;;
76204;SDS011;64986;55.672;37.628;2023-04-01T17:20:48;10.82;;;7.47;;
76204;SDS011;64986;55.672;37.628;2023-04-01T17:23:37;13.43;;;8.47;;
76204;SDS011;64986;55.672;37.628;2023-04-01T17:29:56;13.98;;;8.85;;
76204;SDS011;64986;55.672;37.628;2023-04-01T17:35:12;11.52;;;7.05;;
76204;SDS011;64986;55.672;37.628;2023-04-01T17:40:37;10.82;;;7.78;;
76204;SDS011;64986;55.672;37.628;2023-04-01T17:56:44;11.00;;;7.28;;
76204;SDS011;64986;55.672;37.628;2023-04-01T18:02:31;14.07;;;9.35;;
76204;SDS011;64986;55.672;37.628;2023-04-01T18:26:49;16.05;;;10.30;;
76204;SDS011;64986;55.672;37.628;2023-04-01T18:31:51;15.02;;;9.50;;
76204;SDS011;64986;55.672;37.628;2023-04-01T18:37:17;21.98;;;9.93;;
76204;SDS011;64986;55.672;37.628;2023-04-01T18:39:52;13.30;;;9.10;;
76204;SDS011;64986;55.672;37.628;2023-04-01T18:42:36;19.27;;;11.80;;
76204;SDS011;64986;55.672;37.628;2023-04-01T18:47:49;22.90;;;14.38;;
76204;SDS011;64986;55.672;37.628;2023-04-01T18:50:47;19.80;;;11.50;;
76204;SDS011;64986;55.672;37.628;2023-04-01T18:53:26;16.95;;;10.80;;
76204;SDS011;64986;55.672;37.628;2023-04-01T18:56:02;16.08;;;10.45;;
76204;SDS011;64986;55.672;37.628;2023-04-01T18:58:49;13.63;;;9.02;;
76204;SDS011;64986;55.672;37.628;2023-04-01T19:01:40;13.05;;;9.45;;
76204;SDS011;64986;55.672;37.628;2023-04-01T19:04:35;14.32;;;9.13;;
76204;SDS011;64986;55.672;37.628;2023-04-01T19:07:51;15.27;;;10.10;;
76204;SDS011;64986;55.672;37.628;2023-04-01T19:15:58;17.33;;;9.98;;
76204;SDS011;64986;55.672;37.628;2023-04-01T19:34:58;22.13;;;11.38;;
76204;SDS011;64986;55.672;37.628;2023-04-01T19:40:35;16.65;;;9.57;;
76204;SDS011;64986;55.672;37.628;2023-04-01T19:49:03;16.23;;;8.88;;
76204;SDS011;64986;55.672;37.628;2023-04-01T19:51:42;16.63;;;9.20;;
76204;SDS011;64986;55.672;37.628;2023-04-01T19:54:13;13.40;;;9.32;;
76204;SDS011;64986;55.672;37.628;2023-04-01T20:08:09;12.85;;;8.73;;
76204;SDS011;64986;55.672;37.628;2023-04-01T20:16:11;15.43;;;9.13;;
76204;SDS011;64986;55.672;37.628;2023-04-01T20:26:39;13.15;;;8.25;;
76204;SDS011;64986;55.672;37.628;2023-04-01T20:34:30;11.80;;;8.23;;
76204;SDS011;64986;55.672;37.628;2023-04-01T20:58:21;12.45;;;9.30;;
76204;SDS011;64986;55.672;37.628;2023-04-01T21:03:31;17.95;;;10.07;;
76204;SDS011;64986;55.672;37.628;2023-04-01T21:12:05;16.60;;;9.68;;
76204;SDS011;64986;55.672;37.628;2023-04-01T21:23:45;13.48;;;8.27;;
76204;SDS011;64986;55.672;37.628;2023-04-01T21:51:56;18.00;;;10.13;;
76204;SDS011;64986;55.672;37.628;2023-04-01T22:00:24;20.98;;;10.45;;
76204;SDS011;64986;55.672;37.628;2023-04-01T22:14:30;17.95;;;10.68;;
76204;SDS011;64986;55.672;37.628;2023-04-01T22:16:47;16.35;;;9.68;;
76204;SDS011;64986;55.672;37.628;2023-04-01T22:22:19;17.95;;;10.63;;
76204;SDS011;64986;55.672;37.628;2023-04-01T22:25:07;16.05;;;10.13;;
76204;SDS011;64986;55.672;37.628;2023-04-01T22:30:25;15.32;;;10.20;;
76204;SDS011;64986;55.672;37.628;2023-04-01T22:33:38;17.33;;;10.38;;
76204;SDS011;64986;55.672;37.628;2023-04-01T22:41:30;17.70;;;11.07;;
76204;SDS011;64986;55.672;37.628;2023-04-01T22:43:58;18.45;;;10.75;;
76204;SDS011;64986;55.672;37.628;2023-04-01T22:51:54;16.73;;;10.25;;
76204;SDS011;64986;55.672;37.628;2023-04-01T22:54:28;15.90;;;9.27;;
76204;SDS011;64986;55.672;37.628;2023-04-01T22:57:14;17.65;;;10.40;;
76204;SDS011;64986;55.672;37.628;2023-04-01T22:59:46;16.60;;;11.50;;
76204;SDS011;64986;55.672;37.628;2023-04-01T23:02:22;14.88;;;10.00;;
76204;SDS011;64986;55.672;37.628;2023-04-01T23:04:55;22.15;;;12.90;;
76204;SDS011;64986;55.672;37.628;2023-04-01T23:13:04;18.98;;;10.82;;
76204;SDS011;64986;55.672;37.628;2023-04-01T23:15:38;18.27;;;11.57;;
76204;SDS011;64986;55.672;37.628;2023-04-01T23:29:13;17.77;;;11.05;;
76204;SDS011;64986;55.672;37.628;2023-04-01T23:31:41;16.02;;;10.77;;
76204;SDS011;64986;55.672;37.628;2023-04-01T23:37:23;16.80;;;10.57;;
76204;SDS011;64986;55.672;37.628;2023-04-01T23:42:03;19.02;;;11.88;;
76204;SDS011;64986;55.672;37.628;2023-04-01T23:44:32;23.90;;;14.38;;
76204;SDS011;64986;55.672;37.628;2023-04-01T23:47:00;21.60;;;12.73;;
76204;SDS011;64986;55.672;37.628;2023-04-01T23:49:30;19.58;;;12.05;;
76204;SDS011;64986;55.672;37.628;2023-04-01T23:52:09;18.45;;;11.70;;
76204;SDS011;64986;55.672;37.628;2023-04-01T23:54:41;21.52;;;12.38;;
76204;SDS011;64986;55.672;37.628;2023-04-01T23:57:30;22.38;;;12.77;;
